Time;durP1;ratioP1;P1;durP2;ratioP2;P2;SDS_P1;SDS_P2;PMS_P1;PMS_P2;Temp;Humidity;BMP_temperature;BMP_pressure;BME280_temperature;BME280_humidity;BME280_pressure;Samples;Min_cycle;Max_cycle;Signal;HPM_P1;HPM_P2
2021/01/19 00:00:07;;;;;;;1.70;1.60;;;8.40;99.90;;;;;;6181735;23;20611;-78
2021/01/19 00:02:38;;;;;;;2.28;2.03;;;8.40;99.90;;;;;;6182183;23;20130;-79
2021/01/19 00:05:04;;;;;;;2.15;1.73;;;8.40;99.90;;;;;;6180771;23;20257;-79
2021/01/19 00:07:30;;;;;;;2.25;1.88;;;8.40;99.90;;;;;;6181520;23;20255;-79
2021/01/19 00:09:56;;;;;;;3.90;2.00;;;8.40;99.90;;;;;;6183223;23;20532;-79
2021/01/19 00:12:22;;;;;;;2.67;2.17;;;8.40;99.90;;;;;;6185729;23;20153;-79
2021/01/19 00:14:48;;;;;;;2.87;1.50;;;8.40;99.90;;;;;;6155427;23;20624;-78
2021/01/19 00:17:14;;;;;;;4.70;1.80;;;8.40;99.90;;;;;;6181525;23;20532;-78
2021/01/19 00:19:40;;;;;;;5.00;1.80;;;8.50;99.90;;;;;;6131192;23;20150;-78
2021/01/19 00:22:05;;;;;;;1.87;1.67;;;8.50;99.90;;;;;;6181796;23;21058;-80
2021/01/19 00:24:31;;;;;;;3.03;1.20;;;8.50;99.90;;;;;;6181849;23;20177;-80
2021/01/19 00:26:57;;;;;;;3.10;1.53;;;8.50;99.90;;;;;;6181430;23;20185;-80
2021/01/19 00:29:22;;;;;;;1.90;1.10;;;8.50;99.90;;;;;;6181221;23;20146;-80
2021/01/19 00:31:49;;;;;;;2.90;1.42;;;8.50;99.90;;;;;;6181725;23;20150;-79
2021/01/19 00:34:16;;;;;;;2.90;1.63;;;8.50;99.90;;;;;;6131262;23;20181;-79
2021/01/19 00:36:41;;;;;;;4.20;1.30;;;8.50;99.90;;;;;;6182298;23;20154;-79
2021/01/19 00:39:08;;;;;;;2.00;1.00;;;8.50;99.90;;;;;;6155703;23;20671;-79
2021/01/19 00:41:34;;;;;;;2.92;1.20;;;8.40;99.90;;;;;;6155628;23;20638;-79
2021/01/19 00:44:00;;;;;;;1.97;0.80;;;8.40;99.90;;;;;;6181577;23;20170;-80
2021/01/19 00:46:26;;;;;;;2.77;0.90;;;8.40;99.90;;;;;;6182686;23;20561;-80
2021/01/19 00:48:51;;;;;;;1.83;1.00;;;8.40;99.90;;;;;;6186277;23;20616;-79
2021/01/19 00:51:19;;;;;;;1.60;1.00;;;8.50;99.90;;;;;;6070396;23;20231;-79
2021/01/19 00:53:44;;;;;;;1.90;1.00;;;8.50;99.90;;;;;;6031540;23;20549;-79
2021/01/19 00:56:10;;;;;;;4.10;1.57;;;8.50;99.90;;;;;;6031826;23;20227;-79
2021/01/19 00:58:37;;;;;;;1.95;0.80;;;8.50;99.90;;;;;;6029440;23;20196;-79
2021/01/19 01:01:03;;;;;;;2.60;1.35;;;8.50;99.90;;;;;;6006594;23;20153;-79
2021/01/19 01:03:33;;;;;;;4.33;0.90;;;8.60;99.90;;;;;;6030487;23;20517;-79
2021/01/19 01:05:59;;;;;;;3.80;1.42;;;8.60;99.90;;;;;;6030136;23;20542;-79
2021/01/19 01:08:25;;;;;;;2.35;1.00;;;8.60;99.90;;;;;;6031389;23;20149;-79
2021/01/19 01:10:52;;;;;;;2.10;1.00;;;8.60;99.90;;;;;;6029956;23;20153;-79
2021/01/19 01:13:20;;;;;;;2.10;1.20;;;8.60;99.90;;;;;;6031140;23;20518;-79
2021/01/19 01:15:46;;;;;;;1.70;0.90;;;8.60;99.90;;;;;;6031535;23;20149;-79
2021/01/19 01:18:13;;;;;;;6.60;1.40;;;8.60;99.90;;;;;;6031001;23;20149;-79
2021/01/19 01:20:40;;;;;;;2.65;0.90;;;8.60;99.90;;;;;;6031125;23;20520;-79
2021/01/19 01:23:06;;;;;;;2.55;1.35;;;8.60;99.90;;;;;;6030075;23;20232;-79
2021/01/19 01:25:32;;;;;;;2.22;1.27;;;8.60;99.90;;;;;;6034927;23;20169;-79
2021/01/19 01:27:59;;;;;;;2.88;1.10;;;8.60;99.90;;;;;;6005581;23;20507;-79
2021/01/19 01:30:25;;;;;;;2.47;1.10;;;8.60;99.90;;;;;;6030756;23;20196;-79
2021/01/19 01:32:51;;;;;;;2.50;1.60;;;8.60;99.90;;;;;;6029568;23;20296;-79
2021/01/19 01:35:19;;;;;;;3.08;1.70;;;8.60;99.90;;;;;;6030800;23;20550;-79
2021/01/19 01:37:46;;;;;;;4.15;1.52;;;8.60;99.90;;;;;;6031490;23;20153;-79
2021/01/19 01:40:15;;;;;;;1.40;1.10;;;8.50;99.90;;;;;;6030323;23;20515;-79
2021/01/19 01:42:41;;;;;;;2.63;1.40;;;8.50;99.90;;;;;;6032614;23;20149;-79
2021/01/19 01:45:07;;;;;;;2.80;1.43;;;8.50;99.90;;;;;;6007242;23;20632;-79
2021/01/19 01:47:33;;;;;;;3.30;1.35;;;8.50;99.90;;;;;;6029829;23;20287;-79
2021/01/19 01:49:59;;;;;;;3.50;1.15;;;8.50;99.90;;;;;;6050935;23;20173;-80
2021/01/19 01:52:29;;;;;;;4.43;1.80;;;8.50;99.90;;;;;;6183239;23;20134;-80
2021/01/19 01:54:55;;;;;;;2.58;1.20;;;8.50;99.90;;;;;;6183456;23;20547;-80
2021/01/19 01:57:22;;;;;;;3.55;1.30;;;8.50;99.90;;;;;;6156149;23;20153;-80
2021/01/19 01:59:54;;;;;;;4.82;1.20;;;8.40;99.90;;;;;;6157100;23;20156;-80
2021/01/19 02:02:20;;;;;;;2.50;1.10;;;8.40;99.90;;;;;;6162061;23;20276;-79
2021/01/19 02:04:46;;;;;;;2.90;1.10;;;8.40;99.90;;;;;;6132268;23;20216;-80
2021/01/19 02:07:30;;;;;;;12.40;2.13;;;8.50;99.90;;;;;;6182571;23;20174;-80
2021/01/19 02:10:20;;;;;;;3.65;1.40;;;8.50;99.90;;;;;;6156915;23;20205;-79
2021/01/19 02:12:52;;;;;;;2.50;1.50;;;8.40;99.90;;;;;;6183412;23;20191;-80
2021/01/19 02:15:26;;;;;;;7.43;1.50;;;8.40;99.90;;;;;;6183084;23;20166;-79
2021/01/19 02:18:15;;;;;;;3.30;1.25;;;8.40;99.90;;;;;;6181194;23;20146;-80
2021/01/19 02:20:53;;;;;;;2.75;1.42;;;8.40;99.90;;;;;;6156550;23;20554;-79
2021/01/19 02:23:53;;;;;;;4.38;1.55;;;8.40;99.90;;;;;;6156446;23;20142;-79
2021/01/19 02:26:32;;;;;;;1.60;0.90;;;8.40;99.90;;;;;;6181501;23;20188;-78
2021/01/19 02:29:24;;;;;;;3.10;1.48;;;8.40;99.90;;;;;;6182425;23;20587;-78
2021/01/19 02:32:31;;;;;;;2.22;1.05;;;8.30;99.90;;;;;;6126586;23;20153;-78
2021/01/19 02:35:05;;;;;;;3.25;1.17;;;8.30;99.90;;;;;;6183144;23;20172;-79
2021/01/19 02:37:42;;;;;;;4.40;1.60;;;8.30;99.90;;;;;;6182572;23;20165;-79
2021/01/19 02:40:08;;;;;;;3.80;1.27;;;8.20;99.90;;;;;;6187758;23;20129;-78
2021/01/19 02:42:46;;;;;;;2.35;1.05;;;8.20;99.90;;;;;;6183134;23;20157;-78
2021/01/19 02:45:12;;;;;;;4.03;1.20;;;8.10;99.90;;;;;;6182752;23;20173;-79
2021/01/19 02:47:41;;;;;;;3.38;2.17;;;8.10;99.90;;;;;;6180772;23;20209;-78
2021/01/19 02:50:10;;;;;;;2.85;1.00;;;8.00;99.90;;;;;;6182259;23;20181;-78
2021/01/19 02:52:38;;;;;;;2.67;1.00;;;8.00;99.90;;;;;;6182838;23;20189;-78
2021/01/19 02:55:05;;;;;;;1.70;0.90;;;7.90;99.90;;;;;;6182385;23;20795;-78
2021/01/19 02:58:03;;;;;;;2.70;1.33;;;7.90;99.90;;;;;;6182066;23;20153;-77
2021/01/19 03:01:09;;;;;;;7.15;0.80;;;7.80;99.90;;;;;;6156339;23;20158;-78
2021/01/19 03:03:37;;;;;;;3.53;1.30;;;7.70;99.90;;;;;;6182599;23;20612;-79
2021/01/19 03:06:10;;;;;;;3.33;1.20;;;7.70;99.90;;;;;;6182758;23;20204;-77
2021/01/19 03:08:40;;;;;;;2.60;1.10;;;7.60;99.90;;;;;;6155494;23;20173;-79
2021/01/19 03:11:07;;;;;;;4.50;1.10;;;7.60;99.90;;;;;;6155898;23;20150;-79
2021/01/19 03:13:33;;;;;;;3.30;1.00;;;7.60;99.90;;;;;;6156381;23;20146;-79
2021/01/19 03:16:09;;;;;;;1.85;0.95;;;7.60;99.90;;;;;;6187540;23;20142;-79
2021/01/19 03:18:37;;;;;;;6.38;0.95;;;7.50;99.90;;;;;;6181846;23;20146;-79
2021/01/19 03:21:07;;;;;;;4.10;1.02;;;7.50;99.90;;;;;;6182231;23;20158;-79
2021/01/19 03:23:34;;;;;;;2.65;1.10;;;7.50;99.90;;;;;;6155761;23;20150;-79
2021/01/19 03:26:00;;;;;;;6.97;1.13;;;7.50;99.90;;;;;;6156242;23;20220;-79
2021/01/19 03:28:28;;;;;;;3.35;1.40;;;7.50;99.90;;;;;;6156469;23;20477;-79
2021/01/19 03:30:56;;;;;;;4.70;0.97;;;7.50;99.90;;;;;;6182132;23;20153;-78
2021/01/19 03:33:22;;;;;;;2.25;1.00;;;7.50;99.90;;;;;;6156258;23;20492;-78
2021/01/19 03:35:49;;;;;;;3.53;1.77;;;7.40;99.90;;;;;;6131494;23;20146;-78
2021/01/19 03:38:15;;;;;;;5.72;1.33;;;7.40;99.90;;;;;;6155315;23;20233;-78
2021/01/19 03:40:41;;;;;;;2.85;1.13;;;7.40;99.90;;;;;;6155864;23;20149;-78
2021/01/19 03:43:07;;;;;;;6.63;1.50;;;7.40;99.90;;;;;;6182534;23;20142;-78
2021/01/19 03:45:33;;;;;;;1.75;1.00;;;7.40;99.90;;;;;;6182304;23;20707;-78
2021/01/19 03:48:00;;;;;;;3.92;1.75;;;7.40;99.90;;;;;;6181825;23;20173;-78
2021/01/19 03:50:28;;;;;;;3.15;1.30;;;7.40;99.90;;;;;;6137654;23;20169;-78
2021/01/19 03:52:54;;;;;;;7.75;1.40;;;7.40;99.90;;;;;;6033473;23;20149;-79
2021/01/19 03:55:19;;;;;;;6.57;1.45;;;7.40;99.90;;;;;;6032011;23;20178;-78
2021/01/19 03:57:45;;;;;;;5.30;1.20;;;7.40;99.90;;;;;;6031832;23;20149;-78
2021/01/19 04:00:14;;;;;;;3.90;1.40;;;7.40;99.90;;;;;;6005993;23;20667;-78
2021/01/19 04:02:40;;;;;;;3.75;1.45;;;7.40;99.90;;;;;;6032282;23;20611;-78
2021/01/19 04:05:08;;;;;;;5.03;1.40;;;7.40;99.90;;;;;;6030213;23;20199;-78
2021/01/19 04:07:38;;;;;;;4.40;1.60;;;7.40;99.90;;;;;;6031126;23;20212;-78
2021/01/19 04:10:04;;;;;;;4.82;1.10;;;7.40;99.90;;;;;;6030479;23;20539;-78
2021/01/19 04:12:30;;;;;;;3.60;1.00;;;7.40;99.90;;;;;;6031730;23;20157;-79
2021/01/19 04:14:56;;;;;;;4.70;1.40;;;7.40;99.90;;;;;;6031882;23;20225;-78
2021/01/19 04:17:22;;;;;;;6.57;1.23;;;7.40;99.90;;;;;;6031628;23;20587;-78
2021/01/19 04:19:48;;;;;;;4.60;1.60;;;7.40;99.90;;;;;;6030642;23;20153;-78
2021/01/19 04:22:14;;;;;;;5.77;1.40;;;7.40;99.90;;;;;;6031277;23;20170;-78
2021/01/19 04:24:39;;;;;;;3.13;1.10;;;7.40;99.90;;;;;;6031884;23;20169;-79
2021/01/19 04:27:05;;;;;;;3.33;1.43;;;7.40;99.90;;;;;;6031781;23;20177;-79
2021/01/19 04:29:31;;;;;;;5.00;1.47;;;7.50;99.90;;;;;;6031598;23;20149;-79
2021/01/19 04:31:56;;;;;;;3.10;1.47;;;7.50;99.90;;;;;;6037191;23;20477;-78
2021/01/19 04:34:22;;;;;;;3.50;1.10;;;7.50;99.90;;;;;;6031916;23;20181;-79
2021/01/19 04:36:48;;;;;;;4.80;1.67;;;7.50;99.90;;;;;;6031731;23;20180;-78
2021/01/19 04:39:13;;;;;;;3.27;1.00;;;7.60;99.90;;;;;;6031031;23;20160;-78
2021/01/19 04:41:40;;;;;;;5.93;1.13;;;7.60;99.90;;;;;;6004428;23;20245;-78
2021/01/19 04:44:07;;;;;;;2.75;1.27;;;7.60;99.90;;;;;;6029510;23;20181;-78
2021/01/19 04:46:34;;;;;;;4.53;1.27;;;7.60;99.90;;;;;;6031940;23;20239;-78
2021/01/19 04:49:03;;;;;;;5.13;1.50;;;7.60;99.90;;;;;;6031242;23;20156;-77
2021/01/19 04:51:34;;;;;;;6.40;1.75;;;7.60;99.90;;;;;;6143248;23;20220;-78
2021/01/19 04:54:05;;;;;;;5.57;1.50;;;7.60;99.90;;;;;;6155216;23;20166;-78
2021/01/19 04:56:32;;;;;;;4.90;1.38;;;7.60;99.90;;;;;;6181299;23;20538;-78
2021/01/19 04:58:58;;;;;;;4.22;1.20;;;7.60;99.90;;;;;;6154519;23;20150;-78
2021/01/19 05:01:33;;;;;;;3.53;1.63;;;7.50;99.90;;;;;;6155080;23;20160;-78
2021/01/19 05:04:31;;;;;;;6.15;1.48;;;7.50;99.90;;;;;;6181550;23;20791;-78
2021/01/19 05:07:29;;;;;;;9.45;1.80;;;7.50;99.90;;;;;;6164634;23;20603;-77
2021/01/19 05:10:11;;;;;;;6.18;1.00;;;7.50;99.90;;;;;;6183793;23;20481;-77
2021/01/19 05:12:44;;;;;;;2.38;1.27;;;7.50;99.90;;;;;;6182145;23;20213;-78
2021/01/19 05:15:15;;;;;;;2.55;1.10;;;7.50;99.90;;;;;;6181495;23;20636;-77
2021/01/19 05:17:42;;;;;;;8.82;1.67;;;7.50;99.90;;;;;;6180555;23;20150;-78
2021/01/19 05:20:10;;;;;;;5.97;1.92;;;7.40;99.90;;;;;;6129495;23;20161;-77
2021/01/19 05:22:36;;;;;;;11.23;1.90;;;7.50;99.90;;;;;;6155876;23;20630;-77
2021/01/19 05:25:03;;;;;;;3.85;1.30;;;7.40;99.90;;;;;;6180306;23;20220;-78
2021/01/19 05:27:29;;;;;;;4.95;2.10;;;7.40;99.90;;;;;;6154962;23;20270;-77
2021/01/19 05:30:05;;;;;;;2.90;1.13;;;7.40;99.90;;;;;;6155266;23;20154;-77
2021/01/19 05:32:38;;;;;;;2.22;1.30;;;7.40;99.90;;;;;;6181599;23;20260;-78
2021/01/19 05:35:21;;;;;;;4.32;1.77;;;7.40;99.90;;;;;;6154881;23;20206;-77
2021/01/19 05:38:00;;;;;;;3.78;1.20;;;7.40;99.90;;;;;;6180998;23;20134;-77
2021/01/19 05:40:27;;;;;;;4.30;1.20;;;7.40;99.90;;;;;;6181408;23;20138;-77
2021/01/19 05:43:09;;;;;;;2.65;1.20;;;7.40;99.90;;;;;;6155412;23;20138;-78
2021/01/19 05:45:36;;;;;;;2.22;1.10;;;7.40;99.90;;;;;;6134353;23;20545;-77
2021/01/19 05:48:14;;;;;;;3.67;1.00;;;7.40;99.90;;;;;;6180370;23;20200;-77
2021/01/19 05:50:42;;;;;;;4.82;1.23;;;7.40;99.90;;;;;;6098885;23;20642;-77
2021/01/19 05:53:15;;;;;;;2.25;1.00;;;7.40;99.90;;;;;;6029797;23;20169;-77
2021/01/19 05:55:42;;;;;;;3.58;0.95;;;7.50;99.90;;;;;;6031906;23;20260;-77
2021/01/19 05:58:17;;;;;;;2.85;1.10;;;7.50;99.90;;;;;;6031007;23;20495;-77
2021/01/19 06:00:44;;;;;;;3.50;0.80;;;7.60;99.90;;;;;;6031312;23;20611;-77
2021/01/19 06:03:17;;;;;;;2.30;0.80;;;7.60;99.90;;;;;;6029427;23;20176;-77
2021/01/19 06:05:44;;;;;;;1.88;0.82;;;7.70;99.90;;;;;;6031290;23;20466;-77
2021/01/19 06:08:11;;;;;;;2.85;0.93;;;7.70;99.90;;;;;;6030613;23;20185;-77
2021/01/19 06:10:38;;;;;;;1.38;0.77;;;7.80;99.90;;;;;;6029659;23;20232;-77
2021/01/19 06:13:14;;;;;;;1.73;0.70;;;7.80;99.90;;;;;;6029729;23;20184;-77
2021/01/19 06:15:41;;;;;;;1.50;0.63;;;7.80;99.90;;;;;;6029731;23;20180;-77
2021/01/19 06:18:07;;;;;;;1.60;0.73;;;7.80;99.90;;;;;;6030325;23;20152;-77
2021/01/19 06:20:43;;;;;;;1.60;0.80;;;7.80;99.90;;;;;;6029615;23;20473;-77
2021/01/19 06:23:09;;;;;;;1.92;0.70;;;7.80;99.90;;;;;;6057900;23;20497;-77
2021/01/19 06:25:36;;;;;;;2.28;0.70;;;7.80;99.90;;;;;;6031508;23;20173;-76
2021/01/19 06:28:12;;;;;;;3.00;0.65;;;7.80;99.90;;;;;;6031749;23;20181;-77
2021/01/19 06:30:37;;;;;;;1.10;0.60;;;7.80;99.90;;;;;;6032375;23;20203;-77
2021/01/19 06:33:04;;;;;;;1.10;0.60;;;7.80;99.90;;;;;;6032379;23;20149;-76
2021/01/19 06:35:38;;;;;;;1.75;0.60;;;7.70;99.90;;;;;;6030785;23;20169;-76
2021/01/19 06:38:06;;;;;;;2.80;0.80;;;7.70;99.90;;;;;;6030534;23;20547;-77
2021/01/19 06:40:35;;;;;;;3.17;1.42;;;7.70;99.90;;;;;;6032085;23;20238;-76
2021/01/19 06:43:05;;;;;;;1.52;0.70;;;7.70;99.90;;;;;;6032264;23;20154;-76
2021/01/19 06:45:32;;;;;;;1.80;1.00;;;7.70;99.90;;;;;;6029890;23;20181;-77
2021/01/19 06:48:01;;;;;;;2.60;0.70;;;7.60;99.90;;;;;;6030241;23;20161;-77
2021/01/19 07:05:32;;;;;;;2.65;0.70;;;7.60;99.90;;;;;;6002350;23;20280;-78
2021/01/19 07:08:37;;;;;;;1.85;0.63;;;7.70;99.90;;;;;;6002896;23;20190;-78
2021/01/19 07:11:13;;;;;;;1.25;0.50;;;7.70;99.90;;;;;;6126697;23;20177;-79
2021/01/19 07:13:41;;;;;;;2.17;0.75;;;7.70;99.90;;;;;;6026119;23;20172;-79
2021/01/19 07:16:10;;;;;;;1.30;0.60;;;7.70;99.90;;;;;;6003868;23;20193;-79
2021/01/19 07:18:45;;;;;;;1.48;0.90;;;7.70;99.90;;;;;;6025497;23;20157;-79
2021/01/19 07:21:13;;;;;;;1.70;0.90;;;7.70;99.90;;;;;;6004013;23;20138;-80
2021/01/19 07:23:45;;;;;;;2.13;1.00;;;7.70;99.90;;;;;;5978913;23;20170;-80
2021/01/19 07:26:50;;;;;;;5.95;0.73;;;7.70;99.90;;;;;;6004110;23;20138;-80
2021/01/19 07:29:16;;;;;;;3.97;0.90;;;7.70;99.90;;;;;;5999912;23;20169;-80
2021/01/19 07:31:43;;;;;;;3.80;0.75;;;7.70;99.90;;;;;;6026063;23;20144;-80
2021/01/19 07:34:10;;;;;;;2.13;0.80;;;7.60;99.90;;;;;;6030682;23;20174;-80
2021/01/19 07:36:35;;;;;;;1.85;0.50;;;7.60;99.90;;;;;;6011248;23;20181;-79
2021/01/19 07:39:12;;;;;;;1.77;0.70;;;7.60;99.90;;;;;;6005160;23;20665;-79
2021/01/19 07:41:38;;;;;;;1.20;0.60;;;7.60;99.90;;;;;;6006578;23;20166;-79
2021/01/19 07:44:04;;;;;;;1.10;0.60;;;7.60;99.90;;;;;;6009327;23;20482;-79
2021/01/19 07:46:30;;;;;;;2.73;1.17;;;7.70;99.90;;;;;;6007981;23;20578;-78
2021/01/19 07:49:07;;;;;;;1.90;1.58;;;7.70;99.90;;;;;;6008736;23;20562;-79
2021/01/19 07:51:45;;;;;;;2.53;1.92;;;7.70;99.90;;;;;;6005175;23;20134;-78
2021/01/19 07:54:27;;;;;;;1.52;0.80;;;7.70;99.90;;;;;;6007327;23;20244;-79
2021/01/19 07:56:53;;;;;;;1.92;0.82;;;7.70;99.90;;;;;;6107430;23;20146;-78
2021/01/19 07:59:20;;;;;;;1.67;0.70;;;7.70;99.90;;;;;;6007507;23;20182;-78
2021/01/19 08:01:57;;;;;;;1.30;0.70;;;7.70;99.90;;;;;;6004878;23;20562;-78
2021/01/19 08:04:28;;;;;;;2.17;1.10;;;7.60;99.90;;;;;;6043666;23;20199;-79
2021/01/19 08:06:54;;;;;;;2.75;1.00;;;7.60;99.90;;;;;;6164221;23;20189;-79
2021/01/19 08:09:20;;;;;;;2.13;0.90;;;7.60;99.90;;;;;;6188642;23;20141;-79
2021/01/19 08:11:47;;;;;;;4.63;1.27;;;7.60;99.90;;;;;;6065307;23;20214;-79
2021/01/19 08:14:13;;;;;;;1.30;0.70;;;7.60;99.90;;;;;;6144608;23;20976;-78
2021/01/19 08:16:47;;;;;;;1.73;0.85;;;7.60;99.90;;;;;;6163795;23;20156;-80
2021/01/19 08:19:14;;;;;;;2.42;0.95;;;7.60;99.90;;;;;;6159306;23;20141;-79
2021/01/19 08:21:50;;;;;;;2.45;0.70;;;7.60;99.90;;;;;;6182783;23;20239;-78
2021/01/19 08:24:20;;;;;;;1.83;0.70;;;7.50;99.90;;;;;;6159706;23;20685;-79
2021/01/19 08:26:48;;;;;;;2.10;1.00;;;7.60;99.90;;;;;;6184687;23;20180;-79
2021/01/19 08:29:18;;;;;;;2.33;0.80;;;7.50;99.90;;;;;;6059772;23;20147;-79
2021/01/19 08:31:57;;;;;;;2.30;0.80;;;7.50;99.90;;;;;;6135150;23;20145;-78
2021/01/19 08:34:26;;;;;;;1.88;0.90;;;7.50;99.90;;;;;;6160051;23;20171;-78
2021/01/19 08:36:53;;;;;;;1.95;1.00;;;7.40;99.90;;;;;;6060871;23;20152;-77
2021/01/19 08:39:20;;;;;;;3.83;1.10;;;7.40;99.90;;;;;;6158850;23;20238;-77
2021/01/19 08:41:51;;;;;;;1.50;0.80;;;7.40;99.90;;;;;;6159741;23;20234;-77
2021/01/19 08:44:17;;;;;;;2.45;0.80;;;7.40;99.90;;;;;;6060449;23;20176;-78
2021/01/19 08:46:45;;;;;;;1.83;0.90;;;7.40;99.90;;;;;;6159812;23;20170;-79
2021/01/19 08:49:12;;;;;;;2.08;0.82;;;7.40;99.90;;;;;;6134538;23;20221;-78
2021/01/19 08:51:42;;;;;;;2.70;1.20;;;7.40;99.90;;;;;;6061716;23;20195;-78
2021/01/19 08:54:09;;;;;;;4.82;1.10;;;7.40;99.90;;;;;;6058836;23;20203;-79
2021/01/19 08:56:46;;;;;;;2.28;1.30;;;7.40;99.90;;;;;;6158062;23;20476;-78
2021/01/19 08:59:16;;;;;;;2.88;1.42;;;7.40;99.90;;;;;;6183273;23;20183;-79
2021/01/19 09:01:55;;;;;;;2.17;1.85;;;7.40;99.90;;;;;;6158859;23;20156;-79
2021/01/19 09:04:28;;;;;;;2.78;1.35;;;7.40;99.90;;;;;;6058919;23;20188;-79
2021/01/19 09:07:05;;;;;;;4.10;1.15;;;7.40;99.90;;;;;;6059661;23;20161;-79
2021/01/19 09:09:31;;;;;;;1.55;0.90;;;7.40;99.90;;;;;;6134579;23;20247;-79
2021/01/19 09:11:57;;;;;;;1.70;0.90;;;7.40;99.90;;;;;;6160081;23;20183;-79
2021/01/19 09:14:26;;;;;;;2.40;1.00;;;7.40;99.90;;;;;;6158765;23;20643;-79
2021/01/19 09:16:54;;;;;;;2.17;0.80;;;7.40;99.90;;;;;;6060612;23;20152;-79
2021/01/19 09:19:20;;;;;;;1.27;0.60;;;7.40;99.90;;;;;;6059392;23;20149;-79
2021/01/19 09:21:47;;;;;;;1.63;0.90;;;7.40;99.90;;;;;;6059880;23;20144;-79
2021/01/19 09:24:21;;;;;;;1.20;0.50;;;7.40;99.90;;;;;;6159634;23;20172;-79
2021/01/19 09:26:58;;;;;;;1.10;0.90;;;7.40;99.90;;;;;;6185098;23;20256;-80
2021/01/19 09:29:29;;;;;;;1.30;0.80;;;7.40;99.90;;;;;;6135073;23;20155;-79
2021/01/19 09:31:58;;;;;;;0.95;0.60;;;7.40;99.90;;;;;;6134518;23;20202;-78
2021/01/19 09:34:25;;;;;;;1.58;0.65;;;7.40;99.90;;;;;;6159272;23;20168;-78
2021/01/19 09:36:55;;;;;;;2.13;0.68;;;7.40;99.90;;;;;;6059815;23;20634;-78
2021/01/19 09:39:28;;;;;;;1.67;1.02;;;7.40;99.90;;;;;;6059133;23;20153;-78
2021/01/19 09:41:57;;;;;;;1.38;0.88;;;7.40;99.90;;;;;;6059630;23;20144;-78
2021/01/19 09:44:24;;;;;;;1.50;0.73;;;7.40;99.90;;;;;;6134819;23;20212;-78
2021/01/19 09:46:54;;;;;;;1.35;0.68;;;7.40;99.90;;;;;;6184371;23;20203;-79
2021/01/19 09:49:22;;;;;;;3.50;0.85;;;7.40;99.90;;;;;;6159127;23;20587;-79
2021/01/19 09:51:48;;;;;;;1.10;0.80;;;7.50;99.90;;;;;;6059753;23;20180;-78
2021/01/19 09:54:24;;;;;;;2.35;2.15;;;7.50;99.90;;;;;;6059540;23;20342;-78
2021/01/19 09:56:57;;;;;;;2.58;0.90;;;7.50;99.90;;;;;;6159575;23;20226;-79
2021/01/19 09:59:31;;;;;;;1.35;0.90;;;7.50;99.90;;;;;;6184482;23;20145;-79
2021/01/19 10:01:59;;;;;;;1.52;0.90;;;7.60;99.90;;;;;;6060614;23;20137;-79
2021/01/19 10:04:26;;;;;;;1.35;0.80;;;7.60;99.90;;;;;;6065571;23;20549;-79
2021/01/19 10:07:06;;;;;;;1.75;0.70;;;7.60;99.90;;;;;;6186039;23;20184;-79
2021/01/19 10:09:36;;;;;;;2.17;0.70;;;7.60;99.90;;;;;;6060063;23;20227;-79
2021/01/19 10:12:05;;;;;;;1.88;0.70;;;7.70;99.90;;;;;;6060610;23;20637;-78
2021/01/19 10:14:33;;;;;;;1.73;0.60;;;7.70;99.90;;;;;;6060772;23;20223;-78
2021/01/19 10:17:00;;;;;;;1.20;0.50;;;7.70;99.90;;;;;;6060849;23;20156;-78
2021/01/19 10:19:28;;;;;;;1.00;0.50;;;7.70;99.90;;;;;;6061635;23;20153;-79
2021/01/19 10:21:56;;;;;;;0.98;0.50;;;7.80;99.90;;;;;;6064263;23;20153;-77
2021/01/19 10:24:23;;;;;;;2.15;0.60;;;7.80;99.90;;;;;;6161760;23;20176;-78
2021/01/19 10:27:00;;;;;;;1.38;0.60;;;7.80;99.90;;;;;;6061565;23;20180;-78
2021/01/19 10:29:35;;;;;;;1.60;0.50;;;7.90;99.90;;;;;;6162505;23;20133;-78
2021/01/19 10:32:04;;;;;;;1.00;0.50;;;7.90;99.90;;;;;;6137924;23;20659;-78
2021/01/19 10:34:33;;;;;;;1.10;0.50;;;8.00;99.90;;;;;;6060728;23;20176;-78
2021/01/19 10:37:00;;;;;;;1.00;0.50;;;8.00;99.90;;;;;;6161457;23;20214;-79
2021/01/19 10:39:26;;;;;;;1.65;0.50;;;8.10;99.90;;;;;;6160798;23;20484;-79
2021/01/19 10:41:55;;;;;;;1.00;0.50;;;8.10;99.90;;;;;;6066533;23;20207;-79
2021/01/19 10:44:24;;;;;;;0.90;0.50;;;8.20;99.90;;;;;;6136681;23;20234;-78
2021/01/19 10:46:58;;;;;;;1.02;0.40;;;8.30;99.90;;;;;;6061442;23;20180;-79
2021/01/19 10:49:29;;;;;;;1.10;0.50;;;8.30;99.90;;;;;;6060886;23;20153;-79
2021/01/19 10:52:01;;;;;;;1.10;0.50;;;8.30;99.90;;;;;;6061076;23;20149;-80
2021/01/19 10:54:29;;;;;;;0.90;0.50;;;8.40;99.90;;;;;;6061355;23;20200;-79
2021/01/19 10:57:06;;;;;;;1.20;0.50;;;8.40;99.90;;;;;;6161796;23;20576;-79
2021/01/19 10:59:33;;;;;;;1.00;0.40;;;8.40;99.90;;;;;;6135967;23;20616;-79
2021/01/19 11:01:59;;;;;;;0.90;0.47;;;8.40;99.90;;;;;;6061160;23;20153;-80
2021/01/19 11:04:25;;;;;;;1.80;0.75;;;8.40;99.90;;;;;;6186827;23;20184;-80
2021/01/19 11:06:52;;;;;;;3.33;0.53;;;8.50;99.90;;;;;;6059707;23;20185;-80
2021/01/19 11:09:18;;;;;;;1.70;0.60;;;8.50;99.90;;;;;;6060330;23;20548;-80
2021/01/19 11:11:45;;;;;;;1.13;0.55;;;8.50;99.90;;;;;;6136486;23;20153;-80
2021/01/19 11:14:11;;;;;;;1.38;0.70;;;8.60;99.90;;;;;;6061187;23;20173;-81
2021/01/19 11:16:42;;;;;;;1.10;0.60;;;8.60;99.90;;;;;;6060369;23;20187;-80
2021/01/19 11:19:14;;;;;;;1.40;0.60;;;8.60;99.90;;;;;;6139569;23;20200;-80
2021/01/19 11:21:42;;;;;;;1.65;0.60;;;8.70;99.90;;;;;;6136032;23;20178;-80
2021/01/19 11:24:10;;;;;;;1.52;0.50;;;8.70;99.90;;;;;;6160522;23;20179;-80
2021/01/19 11:26:38;;;;;;;1.10;0.55;;;8.80;99.90;;;;;;6060722;23;20299;-80
2021/01/19 11:29:05;;;;;;;1.25;0.50;;;8.80;99.90;;;;;;6134473;23;20180;-80
2021/01/19 11:43:43;;;;;;;2.42;1.23;;;9.10;99.90;;;;;;6066400;23;20212;-76
2021/01/19 11:46:09;;;;;;;1.70;0.83;;;9.30;99.90;;;;;;6126042;23;20143;-76
2021/01/19 11:48:35;;;;;;;1.30;0.75;;;9.50;99.90;;;;;;6127158;23;20559;-80
2021/01/19 11:51:03;;;;;;;1.10;0.57;;;9.60;99.90;;;;;;6125439;23;20162;-79
2021/01/19 11:53:32;;;;;;;1.10;0.50;;;9.70;99.90;;;;;;6125784;23;20223;-80
2021/01/19 11:55:59;;;;;;;0.95;0.50;;;9.80;99.90;;;;;;6151902;23;20154;-80
2021/01/19 11:58:25;;;;;;;0.93;0.50;;;9.90;99.90;;;;;;6147740;23;20181;-80
2021/01/19 12:00:53;;;;;;;1.13;0.60;;;10.00;99.90;;;;;;6122282;23;20564;-80
2021/01/19 12:03:19;;;;;;;1.02;0.50;;;10.10;99.90;;;;;;6123682;23;21011;-79
2021/01/19 12:05:46;;;;;;;0.90;0.40;;;10.10;99.90;;;;;;6123786;23;20150;-80
2021/01/19 12:08:13;;;;;;;1.20;0.60;;;10.20;99.90;;;;;;6149145;23;20522;-81
2021/01/19 12:10:44;;;;;;;1.45;0.70;;;10.30;99.90;;;;;;6151199;23;20147;-80
2021/01/19 12:13:12;;;;;;;1.65;0.65;;;10.30;99.90;;;;;;6150463;23;20205;-80
2021/01/19 12:15:39;;;;;;;1.10;0.50;;;10.40;99.90;;;;;;6101404;23;20166;-80
2021/01/19 12:18:05;;;;;;;1.02;0.60;;;10.40;99.90;;;;;;6125331;23;20165;-80
2021/01/19 12:20:31;;;;;;;1.02;0.50;;;10.40;99.90;;;;;;6077149;23;20219;-80
2021/01/19 12:22:56;;;;;;;0.90;0.40;;;10.50;99.90;;;;;;6151581;23;20147;-80
2021/01/19 12:25:22;;;;;;;0.90;0.40;;;10.50;99.90;;;;;;6151705;23;20245;-80
2021/01/19 12:27:48;;;;;;;1.23;0.50;;;10.50;99.90;;;;;;6125299;23;20313;-80
2021/01/19 12:30:15;;;;;;;1.00;0.40;;;10.50;99.90;;;;;;6101297;23;20163;-79
2021/01/19 12:32:41;;;;;;;1.13;0.50;;;10.50;99.90;;;;;;6154482;23;20138;-79
2021/01/19 12:35:07;;;;;;;0.97;0.50;;;10.60;99.90;;;;;;6101183;23;20245;-79
2021/01/19 12:37:33;;;;;;;1.00;0.40;;;10.60;99.90;;;;;;6151226;23;20805;-79
2021/01/19 12:39:59;;;;;;;2.17;0.43;;;10.50;99.90;;;;;;6151754;23;20233;-79
2021/01/19 12:42:25;;;;;;;3.07;0.60;;;10.60;99.90;;;;;;6125469;23;20608;-79
2021/01/19 12:44:50;;;;;;;1.50;0.50;;;10.60;99.90;;;;;;6023453;23;21123;-79
2021/01/19 12:47:16;;;;;;;1.67;0.50;;;10.60;99.90;;;;;;6001269;23;20220;-80
2021/01/19 12:49:42;;;;;;;1.20;0.50;;;10.60;99.90;;;;;;6003361;23;20157;-80
2021/01/19 12:52:09;;;;;;;1.03;0.60;;;10.60;99.90;;;;;;6001790;23;20581;-80
2021/01/19 12:54:35;;;;;;;1.40;0.50;;;10.70;99.90;;;;;;5978689;23;20510;-79
2021/01/19 12:57:01;;;;;;;0.90;0.40;;;10.70;99.90;;;;;;6002165;23;20157;-78
2021/01/19 12:59:28;;;;;;;0.90;0.40;;;10.70;99.90;;;;;;6001605;23;20205;-78
2021/01/19 13:02:02;;;;;;;0.90;0.50;;;10.70;99.90;;;;;;5977167;23;20153;-79
2021/01/19 13:04:28;;;;;;;1.20;0.40;;;10.80;99.90;;;;;;6001878;23;20780;-80
2021/01/19 13:06:54;;;;;;;0.90;0.40;;;10.80;99.90;;;;;;6001882;23;20256;-79
2021/01/19 13:09:20;;;;;;;1.30;0.53;;;10.80;99.90;;;;;;6029134;23;20161;-79
2021/01/19 13:11:48;;;;;;;1.20;0.45;;;10.80;99.90;;;;;;5978139;23;20526;-79
2021/01/19 13:14:13;;;;;;;1.13;0.70;;;10.90;99.90;;;;;;6001732;23;20260;-79
2021/01/19 13:16:40;;;;;;;2.43;1.33;;;10.90;99.90;;;;;;6003497;23;20178;-80
2021/01/19 13:19:09;;;;;;;5.68;2.95;;;10.90;99.90;;;;;;5978048;23;20160;-79
2021/01/19 13:21:35;;;;;;;5.65;2.97;;;10.90;99.90;;;;;;6001488;23;20161;-79
2021/01/19 13:24:01;;;;;;;3.33;2.03;;;10.90;99.90;;;;;;6003539;23;20170;-80
2021/01/19 13:26:28;;;;;;;1.42;0.90;;;11.00;99.90;;;;;;6001109;23;21159;-79
2021/01/19 13:28:54;;;;;;;1.52;0.93;;;11.00;99.90;;;;;;6002431;23;20221;-80
2021/01/19 13:31:24;;;;;;;2.40;1.67;;;11.00;99.90;;;;;;6003154;23;20228;-79
2021/01/19 13:33:53;;;;;;;1.50;0.70;;;11.10;99.90;;;;;;6003895;23;20166;-80